createdAt,value
2023-05-16T00:01:46.497Z,17.70
2023-05-16T00:04:13.611Z,27.77
2023-05-16T00:06:40.719Z,25.10
2023-05-16T00:09:07.625Z,23.25
2023-05-16T00:11:34.185Z,23.98
2023-05-16T00:14:01.601Z,21.98
2023-05-16T00:16:30.164Z,22.50
2023-05-16T00:19:01.085Z,20.70
2023-05-16T00:21:28.535Z,22.83
2023-05-16T00:23:55.114Z,20.10
2023-05-16T00:26:22.013Z,17.90
2023-05-16T00:28:48.892Z,20.83
2023-05-16T00:31:15.715Z,25.00
2023-05-16T00:33:42.456Z,18.73
2023-05-16T00:36:09.187Z,20.92
2023-05-16T00:38:35.828Z,20.92
2023-05-16T00:41:02.455Z,25.33
2023-05-16T00:43:29.097Z,22.45
2023-05-16T00:45:57.899Z,21.17
2023-05-16T00:48:25.124Z,24.10
2023-05-16T00:50:53.305Z,22.73
2023-05-16T00:53:20.453Z,20.73
2023-05-16T00:55:47.810Z,19.33
2023-05-16T00:58:14.882Z,20.33
2023-05-16T01:00:42.513Z,19.25
2023-05-16T01:03:09.381Z,20.95
2023-05-16T01:05:36.081Z,21.70
2023-05-16T01:08:02.684Z,21.52
2023-05-16T01:10:50.013Z,16.50
2023-05-16T01:13:33.650Z,21.55
2023-05-16T01:16:02.782Z,17.60
2023-05-16T01:18:48.050Z,22.73
2023-05-16T01:21:32.593Z,19.10
2023-05-16T01:24:09.642Z,21.52
2023-05-16T01:26:36.802Z,18.60
2023-05-16T01:29:03.939Z,20.83
2023-05-16T01:31:30.620Z,22.20
2023-05-16T01:33:57.406Z,29.90
2023-05-16T01:36:56.109Z,16.70
2023-05-16T01:39:43.198Z,20.40
2023-05-16T01:42:14.415Z,17.00
2023-05-16T01:44:50.522Z,19.70
2023-05-16T01:47:19.466Z,18.30
2023-05-16T01:50:10.482Z,22.35
2023-05-16T01:52:43.674Z,23.02
2023-05-16T01:55:15.049Z,16.52
2023-05-16T01:57:43.546Z,16.23
2023-05-16T02:00:10.780Z,15.85
2023-05-16T02:02:37.532Z,18.17
2023-05-16T02:05:04.466Z,15.05
2023-05-16T02:07:31.312Z,18.40
2023-05-16T02:09:57.903Z,18.17
2023-05-16T02:12:25.420Z,23.42
2023-05-16T02:14:52.517Z,21.33
2023-05-16T02:17:19.068Z,18.27
2023-05-16T02:19:45.671Z,17.42
2023-05-16T02:22:12.349Z,18.17
2023-05-16T02:24:39.291Z,19.65
2023-05-16T02:27:06.279Z,19.42
2023-05-16T02:29:33.205Z,17.98
2023-05-16T02:32:00.200Z,17.25
2023-05-16T02:34:26.890Z,23.33
2023-05-16T02:36:53.562Z,20.98
2023-05-16T02:39:20.138Z,17.55
2023-05-16T02:41:46.818Z,18.13
2023-05-16T02:44:13.475Z,16.55
2023-05-16T02:46:42.009Z,17.02
2023-05-16T02:49:08.648Z,19.70
2023-05-16T02:51:35.292Z,23.95
2023-05-16T02:54:02.057Z,21.33
2023-05-16T02:56:28.736Z,16.38
2023-05-16T02:58:56.350Z,15.85
2023-05-16T03:01:23.161Z,22.30
2023-05-16T03:03:50.051Z,18.20
2023-05-16T03:06:16.800Z,18.90
2023-05-16T03:08:43.389Z,20.67
2023-05-16T03:11:10.084Z,16.98
2023-05-16T03:13:36.795Z,17.00
2023-05-16T03:16:03.627Z,18.75
2023-05-16T03:18:30.421Z,16.67
2023-05-16T03:20:57.550Z,21.17
2023-05-16T03:23:24.266Z,17.38
2023-05-16T03:25:51.011Z,24.95
2023-05-16T03:28:18.390Z,19.85
2023-05-16T03:30:45.166Z,20.17
2023-05-16T03:33:11.836Z,23.50
2023-05-16T03:35:39.816Z,18.05
2023-05-16T03:38:06.574Z,17.00
2023-05-16T03:40:33.224Z,20.30
2023-05-16T03:43:00.077Z,18.40
2023-05-16T03:45:27.116Z,20.27
2023-05-16T03:47:54.010Z,21.33
2023-05-16T03:50:20.668Z,17.83
2023-05-16T03:52:47.245Z,22.50
2023-05-16T03:55:15.191Z,18.45
2023-05-16T03:57:42.780Z,19.55
2023-05-16T04:00:12.701Z,13.80
2023-05-16T04:02:43.018Z,23.75
2023-05-16T04:05:11.270Z,19.02
2023-05-16T04:07:38.270Z,18.05
2023-05-16T04:10:05.616Z,16.42
2023-05-16T04:12:32.619Z,22.50
2023-05-16T04:14:59.365Z,21.25
2023-05-16T04:17:26.228Z,15.10
2023-05-16T04:19:52.891Z,19.25
2023-05-16T04:22:24.790Z,16.25
2023-05-16T04:24:51.527Z,16.27
2023-05-16T04:27:18.511Z,18.42
2023-05-16T04:29:45.456Z,17.80
2023-05-16T04:32:12.464Z,14.02
2023-05-16T04:34:40.325Z,18.88
2023-05-16T04:37:08.319Z,15.45
2023-05-16T04:39:36.233Z,23.40
2023-05-16T04:42:04.478Z,20.60
2023-05-16T04:44:33.234Z,19.35
2023-05-16T04:46:59.776Z,15.55
2023-05-16T04:49:26.566Z,13.63
2023-05-16T04:51:53.276Z,16.33
2023-05-16T04:54:20.012Z,17.17
2023-05-16T04:56:46.623Z,19.75
2023-05-16T04:59:13.341Z,19.10
2023-05-16T05:01:40.000Z,18.77
2023-05-16T05:04:06.807Z,17.40
2023-05-16T05:06:33.761Z,17.80
2023-05-16T05:09:00.692Z,15.18
2023-05-16T05:11:27.467Z,15.10
2023-05-16T05:13:54.279Z,14.68
2023-05-16T05:16:20.940Z,16.13
2023-05-16T05:18:47.875Z,15.13
2023-05-16T05:21:14.649Z,19.33
2023-05-16T05:23:41.316Z,22.05
2023-05-16T05:26:08.174Z,17.65
2023-05-16T05:28:34.887Z,17.13
2023-05-16T05:31:01.812Z,17.55
2023-05-16T05:33:29.613Z,16.85
2023-05-16T05:35:56.494Z,13.10
2023-05-16T05:38:23.210Z,15.27
2023-05-16T05:40:49.834Z,17.63
2023-05-16T05:43:16.475Z,16.25
2023-05-16T05:45:44.134Z,15.73
2023-05-16T05:48:11.662Z,12.13
2023-05-16T05:50:38.539Z,15.68
2023-05-16T05:53:05.400Z,14.23
2023-05-16T05:55:32.018Z,13.90
2023-05-16T05:57:58.642Z,14.32
2023-05-16T06:00:25.309Z,16.17
2023-05-16T06:02:52.367Z,13.82
2023-05-16T06:05:19.372Z,16.02
2023-05-16T06:07:46.142Z,17.38
2023-05-16T06:10:12.919Z,19.00
2023-05-16T06:12:39.608Z,14.38
2023-05-16T06:15:06.779Z,15.75
2023-05-16T06:17:33.491Z,15.10
2023-05-16T06:20:00.236Z,15.90
2023-05-16T06:22:26.976Z,14.73
2023-05-16T06:24:53.695Z,16.00
2023-05-16T06:27:20.385Z,14.63
2023-05-16T06:29:47.098Z,15.70
2023-05-16T06:32:13.708Z,14.82
2023-05-16T06:34:40.519Z,15.52
2023-05-16T06:37:07.198Z,12.48
2023-05-16T06:39:34.122Z,15.57
2023-05-16T06:42:00.906Z,14.20
2023-05-16T06:44:27.807Z,12.23
2023-05-16T06:46:54.606Z,11.48
2023-05-16T06:49:21.478Z,8.15
2023-05-16T06:51:48.209Z,6.93
2023-05-16T06:54:15.137Z,9.60
2023-05-16T06:56:43.434Z,8.35
2023-05-16T06:59:10.057Z,8.35
2023-05-16T07:01:36.830Z,11.10
2023-05-16T07:04:03.671Z,13.63
2023-05-16T07:06:30.510Z,14.55
2023-05-16T07:08:57.465Z,10.35
2023-05-16T07:11:24.159Z,11.88
2023-05-16T07:13:50.821Z,11.20
2023-05-16T07:16:17.673Z,10.45
2023-05-16T07:18:44.399Z,13.57
2023-05-16T07:21:11.533Z,13.73
2023-05-16T07:23:38.359Z,18.92
2023-05-16T07:26:05.166Z,11.00
2023-05-16T07:28:31.823Z,14.38
2023-05-16T07:31:04.764Z,17.20
2023-05-16T07:33:31.404Z,15.38
2023-05-16T07:36:12.249Z,16.38
2023-05-16T07:38:43.463Z,11.57
2023-05-16T07:41:10.171Z,13.63
2023-05-16T07:43:36.965Z,14.45
2023-05-16T07:46:04.146Z,14.43
2023-05-16T07:48:31.013Z,12.52
2023-05-16T07:50:57.910Z,12.50
2023-05-16T07:53:24.918Z,14.50
2023-05-16T07:55:51.685Z,13.57
2023-05-16T07:58:18.424Z,16.48
2023-05-16T08:00:45.466Z,15.70
2023-05-16T08:03:12.645Z,15.80
2023-05-16T08:05:39.917Z,16.05
2023-05-16T08:08:06.604Z,15.00
2023-05-16T08:10:33.407Z,15.45
2023-05-16T08:13:00.125Z,15.85
2023-05-16T08:15:28.326Z,14.43
2023-05-16T08:17:58.296Z,17.90
2023-05-16T08:20:25.888Z,13.73
2023-05-16T08:22:53.159Z,12.43
2023-05-16T08:25:20.503Z,15.73
2023-05-16T08:27:49.752Z,15.35
2023-05-16T08:30:16.652Z,13.30
2023-05-16T08:32:43.774Z,20.30
2023-05-16T08:35:11.304Z,13.77
2023-05-16T08:37:38.078Z,13.43
2023-05-16T08:40:08.289Z,12.52
2023-05-16T08:42:35.455Z,14.50
2023-05-16T08:45:02.780Z,13.50
2023-05-16T08:47:32.130Z,16.80
2023-05-16T08:50:01.635Z,15.75
2023-05-16T08:52:29.944Z,13.57
2023-05-16T08:55:09.968Z,13.23
2023-05-16T08:57:38.984Z,17.17
2023-05-16T09:00:12.094Z,17.30
2023-05-16T09:02:43.500Z,19.25
2023-05-16T09:05:13.224Z,18.40
2023-05-16T09:07:40.690Z,13.80
2023-05-16T09:10:08.478Z,14.50
2023-05-16T09:12:36.173Z,14.57
2023-05-16T09:15:04.813Z,12.80
2023-05-16T09:17:42.221Z,15.38
2023-05-16T09:20:11.455Z,15.88
2023-05-16T09:22:38.739Z,11.23
2023-05-16T09:25:08.568Z,13.10
2023-05-16T09:27:41.206Z,13.80
2023-05-16T09:30:08.671Z,13.05
2023-05-16T09:32:35.438Z,14.38
2023-05-16T09:35:02.146Z,14.77
2023-05-16T09:37:30.547Z,13.63
2023-05-16T09:39:57.306Z,15.40
2023-05-16T09:42:25.791Z,13.63
2023-05-16T09:44:55.004Z,16.10
2023-05-16T09:47:22.566Z,17.20
2023-05-16T09:49:53.458Z,14.93
2023-05-16T09:52:20.270Z,10.77
2023-05-16T09:54:49.982Z,13.60
2023-05-16T09:57:20.532Z,12.82
2023-05-16T10:02:14.364Z,13.80
2023-05-16T10:04:41.448Z,14.95
2023-05-16T10:07:09.936Z,12.23
2023-05-16T10:09:38.840Z,13.88
2023-05-16T10:12:09.049Z,16.90
2023-05-16T10:14:39.489Z,14.85
2023-05-16T10:17:07.997Z,14.52
2023-05-16T10:19:38.721Z,12.73
2023-05-16T10:22:06.907Z,13.73
2023-05-16T10:24:57.395Z,14.73
2023-05-16T10:27:25.915Z,15.00
2023-05-16T10:29:55.048Z,13.15
2023-05-16T10:32:25.448Z,13.45
2023-05-16T10:34:53.118Z,17.55
2023-05-16T10:37:19.838Z,14.68
2023-05-16T10:39:46.897Z,14.05
2023-05-16T10:42:18.281Z,14.80
2023-05-16T10:44:54.816Z,14.63
2023-05-16T10:47:29.480Z,13.60
2023-05-16T10:49:56.298Z,15.32
2023-05-16T10:52:34.368Z,9.80
2023-05-16T10:55:04.848Z,10.50
2023-05-16T10:57:33.383Z,12.50
2023-05-16T11:00:01.957Z,12.80
2023-05-16T11:02:34.708Z,11.15
2023-05-16T11:05:02.962Z,12.55
2023-05-16T11:07:37.075Z,13.65
2023-05-16T11:10:04.491Z,10.38
2023-05-16T11:12:50.735Z,16.58
2023-05-16T11:15:28.792Z,13.75
2023-05-16T11:18:09.574Z,13.13
2023-05-16T11:20:39.965Z,18.85
2023-05-16T11:23:26.902Z,15.40
2023-05-16T11:25:57.508Z,14.85
2023-05-16T11:28:26.797Z,12.45
2023-05-16T11:30:57.521Z,11.10
2023-05-16T11:33:25.021Z,16.38
2023-05-16T11:36:15.892Z,10.23
2023-05-16T11:38:44.004Z,13.25
2023-05-16T11:41:11.700Z,11.02
2023-05-16T11:43:43.817Z,14.60
2023-05-16T11:46:14.563Z,18.85
2023-05-16T11:48:41.699Z,14.35
2023-05-16T11:51:10.158Z,15.30
2023-05-16T11:53:38.331Z,17.23
2023-05-16T11:56:08.298Z,13.32
2023-05-16T11:58:34.940Z,15.05
2023-05-16T12:01:05.009Z,11.73
2023-05-16T12:03:33.731Z,15.70
2023-05-16T12:06:00.975Z,16.10
2023-05-16T12:08:27.823Z,18.63
2023-05-16T12:10:54.580Z,14.32
2023-05-16T12:13:23.668Z,13.43
2023-05-16T12:15:52.959Z,15.88
2023-05-16T12:18:21.383Z,15.20
2023-05-16T12:20:48.424Z,14.20
2023-05-16T12:23:15.476Z,14.77
2023-05-16T12:25:49.350Z,14.80
2023-05-16T12:28:16.458Z,20.75
2023-05-16T12:30:44.741Z,15.05
2023-05-16T12:33:14.186Z,19.15
2023-05-16T12:35:43.356Z,12.40
2023-05-16T12:38:13.598Z,15.52
2023-05-16T12:40:42.220Z,12.50
2023-05-16T12:43:16.010Z,15.38
2023-05-16T12:45:43.506Z,15.77
2023-05-16T12:48:14.230Z,12.18
2023-05-16T12:50:41.929Z,15.05
2023-05-16T12:53:13.987Z,15.88
2023-05-16T12:55:41.634Z,18.50
2023-05-16T12:58:09.337Z,15.77
2023-05-16T13:00:37.719Z,13.88
2023-05-16T13:03:06.257Z,15.63
2023-05-16T13:05:33.658Z,15.45
2023-05-16T13:08:00.325Z,15.30
2023-05-16T13:10:27.217Z,16.13
2023-05-16T13:12:54.257Z,16.38
2023-05-16T13:15:21.122Z,17.35
2023-05-16T13:17:48.803Z,15.27
2023-05-16T13:20:15.888Z,15.57
2023-05-16T13:22:43.912Z,17.42
2023-05-16T13:25:11.237Z,14.63
2023-05-16T13:27:37.973Z,17.08
2023-05-16T13:30:05.480Z,18.08
2023-05-16T13:32:32.222Z,15.65
2023-05-16T13:34:59.106Z,18.60
2023-05-16T13:37:25.873Z,16.08
2023-05-16T13:39:54.762Z,14.38
2023-05-16T13:42:21.680Z,15.07
2023-05-16T13:44:48.589Z,16.45
2023-05-16T13:47:15.637Z,16.95
2023-05-16T13:49:42.453Z,19.15
2023-05-16T13:52:09.281Z,18.52
2023-05-16T13:54:35.974Z,15.35
2023-05-16T13:57:03.629Z,15.23
2023-05-16T13:59:55.129Z,14.93
2023-05-16T14:02:18.286Z,15.48
2023-05-16T14:04:44.880Z,13.48
2023-05-16T14:07:11.713Z,13.68
2023-05-16T14:09:39.658Z,11.02
2023-05-16T14:12:09.967Z,15.57
2023-05-16T14:14:37.418Z,12.63
2023-05-16T14:17:04.458Z,12.15
2023-05-16T14:19:31.686Z,13.65
2023-05-16T14:21:58.654Z,11.10
2023-05-16T14:24:25.565Z,9.90
2023-05-16T14:26:58.216Z,9.40
2023-05-16T14:29:25.690Z,13.40
2023-05-16T14:31:53.211Z,13.82
2023-05-16T14:34:20.583Z,11.23
2023-05-16T14:36:47.903Z,13.70
2023-05-16T14:39:14.740Z,16.25
2023-05-16T14:41:41.476Z,14.63
2023-05-16T14:44:08.161Z,12.68
2023-05-16T14:46:35.015Z,13.23
2023-05-16T14:49:01.848Z,13.45
2023-05-16T14:51:28.565Z,12.70
2023-05-16T14:53:55.489Z,14.18
2023-05-16T14:56:22.710Z,14.55
2023-05-16T14:58:49.397Z,13.93
2023-05-16T15:01:16.731Z,14.25
2023-05-16T15:03:54.784Z,10.45
2023-05-16T15:06:23.611Z,15.48
2023-05-16T15:08:50.862Z,15.13
2023-05-16T15:11:17.576Z,13.90
2023-05-16T15:13:44.366Z,13.25
2023-05-16T15:16:11.240Z,14.10
2023-05-16T15:18:40.884Z,12.82
2023-05-16T15:21:07.909Z,12.90
2023-05-16T15:23:34.585Z,13.32
2023-05-16T15:26:01.214Z,12.43
2023-05-16T15:28:27.933Z,10.50
2023-05-16T15:30:54.521Z,14.43
2023-05-16T15:33:21.140Z,9.25
2023-05-16T15:35:48.530Z,11.88
2023-05-16T15:38:15.565Z,14.13
2023-05-16T15:40:42.672Z,15.20
2023-05-16T15:43:09.306Z,10.70
2023-05-16T15:45:39.950Z,11.35
2023-05-16T15:48:07.490Z,13.35
2023-05-16T15:50:34.211Z,14.45
2023-05-16T15:53:01.051Z,10.82
2023-05-16T15:55:27.933Z,12.00
2023-05-16T15:57:57.363Z,11.88
2023-05-16T16:00:24.937Z,18.08
2023-05-16T16:02:52.146Z,20.88
2023-05-16T16:05:19.090Z,12.30
2023-05-16T16:07:45.886Z,11.63
2023-05-16T16:10:13.525Z,18.80
2023-05-16T16:12:40.365Z,18.10
2023-05-16T16:15:09.613Z,14.20
2023-05-16T16:17:36.378Z,12.40
2023-05-16T16:20:03.360Z,14.15
2023-05-16T16:22:30.210Z,13.05
2023-05-16T16:24:56.868Z,12.40
2023-05-16T16:27:23.658Z,12.30
2023-05-16T16:29:50.365Z,13.57
2023-05-16T16:32:17.011Z,11.82
2023-05-16T16:34:43.725Z,13.38
2023-05-16T16:37:11.587Z,12.40
2023-05-16T16:42:05.608Z,12.52
2023-05-16T16:44:32.266Z,10.82
2023-05-16T16:46:59.138Z,12.73
2023-05-16T16:49:25.922Z,13.52
2023-05-16T16:51:52.622Z,12.02
2023-05-16T16:54:19.294Z,10.20
2023-05-16T16:56:47.514Z,11.88
2023-05-16T16:59:14.199Z,17.45
2023-05-16T17:01:41.205Z,14.80
2023-05-16T17:04:07.961Z,12.50
2023-05-16T17:06:34.619Z,17.50
2023-05-16T17:09:04.769Z,9.65
2023-05-16T17:11:31.826Z,9.82
2023-05-16T17:13:59.704Z,13.15
2023-05-16T17:16:28.800Z,10.55
2023-05-16T17:18:56.427Z,10.77
2023-05-16T17:21:23.131Z,12.68
2023-05-16T17:23:51.360Z,11.13
2023-05-16T17:26:18.048Z,13.02
2023-05-16T17:28:49.279Z,12.38
2023-05-16T17:31:16.636Z,10.73
2023-05-16T17:33:43.475Z,9.98
2023-05-16T17:36:10.901Z,9.27
2023-05-16T17:38:37.837Z,12.82
2023-05-16T17:41:04.559Z,12.35
2023-05-16T17:43:31.404Z,12.10
2023-05-16T17:45:58.097Z,13.80
2023-05-16T17:48:25.000Z,9.68
2023-05-16T17:50:51.808Z,9.90
2023-05-16T17:53:18.573Z,14.52
2023-05-16T17:55:45.424Z,14.75
2023-05-16T17:58:12.875Z,10.35
2023-05-16T18:00:39.754Z,16.15
2023-05-16T18:03:06.995Z,14.90
2023-05-16T18:05:33.793Z,17.00
2023-05-16T18:08:00.878Z,14.52
2023-05-16T18:10:31.553Z,19.35
2023-05-16T18:13:03.657Z,15.30
2023-05-16T18:15:30.674Z,17.50
2023-05-16T18:17:57.343Z,13.15
2023-05-16T18:20:24.326Z,12.27
2023-05-16T18:22:52.004Z,13.55
2023-05-16T18:25:22.051Z,15.50
2023-05-16T18:27:48.754Z,16.52
2023-05-16T18:30:16.461Z,17.98
2023-05-16T18:32:43.396Z,15.75
2023-05-16T18:35:10.404Z,13.27
2023-05-16T18:37:37.365Z,16.70
2023-05-16T18:40:04.859Z,17.73
2023-05-16T18:42:31.528Z,17.08
2023-05-16T18:44:58.140Z,20.90
2023-05-16T18:47:25.019Z,18.63
2023-05-16T18:49:52.612Z,18.35
2023-05-16T18:52:19.564Z,18.95
2023-05-16T18:54:46.198Z,18.80
2023-05-16T18:57:13.241Z,19.52
2023-05-16T18:59:40.027Z,20.85
2023-05-16T19:02:06.662Z,17.40
2023-05-16T19:04:33.887Z,14.98
2023-05-16T19:07:03.169Z,20.35
2023-05-16T19:09:32.520Z,17.20
2023-05-16T19:11:59.182Z,18.30
2023-05-16T19:14:27.229Z,18.45
2023-05-16T19:16:53.909Z,19.55
2023-05-16T19:19:21.000Z,21.98
2023-05-16T19:21:47.907Z,21.95
2023-05-16T19:24:15.165Z,19.95
2023-05-16T19:26:41.913Z,20.70
2023-05-16T19:29:10.689Z,22.05
2023-05-16T19:31:37.404Z,20.92
2023-05-16T19:34:04.045Z,18.55
2023-05-16T19:36:30.989Z,21.35
2023-05-16T19:38:57.756Z,21.13
2023-05-16T19:41:24.684Z,18.85
2023-05-16T19:43:51.553Z,21.50
2023-05-16T19:46:18.204Z,23.50
2023-05-16T19:48:44.916Z,21.88
2023-05-16T19:51:11.862Z,22.08
2023-05-16T19:53:38.666Z,21.90
2023-05-16T19:56:05.658Z,24.35
2023-05-16T19:58:32.357Z,23.88
2023-05-16T20:00:59.017Z,18.30
2023-05-16T20:03:25.858Z,24.17
2023-05-16T20:05:52.730Z,20.05
2023-05-16T20:08:19.600Z,19.77
2023-05-16T20:10:46.289Z,23.48
2023-05-16T20:13:15.175Z,22.35
2023-05-16T20:15:41.897Z,25.50
2023-05-16T20:18:08.676Z,24.02
2023-05-16T20:20:35.434Z,19.30
2023-05-16T20:23:02.674Z,20.63
2023-05-16T20:25:30.190Z,20.95
2023-05-16T20:27:57.422Z,20.42
2023-05-16T20:30:24.109Z,19.70
2023-05-16T20:32:50.793Z,25.25
2023-05-16T20:35:17.738Z,22.30
2023-05-16T20:37:44.689Z,21.02
2023-05-16T20:40:11.654Z,22.02
2023-05-16T20:42:38.434Z,22.23
2023-05-16T20:45:05.635Z,22.88
2023-05-16T20:47:32.376Z,26.63
2023-05-16T20:49:59.272Z,23.00
2023-05-16T20:52:26.001Z,23.58
2023-05-16T20:54:52.640Z,25.17
2023-05-16T20:57:19.371Z,25.00
2023-05-16T20:59:46.047Z,21.80
2023-05-16T21:02:12.807Z,25.05
2023-05-16T21:04:39.635Z,24.42
2023-05-16T21:07:08.214Z,24.25
2023-05-16T21:09:37.081Z,34.42
2023-05-16T21:12:04.345Z,26.42
2023-05-16T21:14:31.056Z,22.45
2023-05-16T21:16:57.697Z,25.63
2023-05-16T21:19:24.549Z,23.65
2023-05-16T21:21:51.324Z,27.00
2023-05-16T21:24:18.134Z,28.48
2023-05-16T21:26:44.916Z,22.10
2023-05-16T21:29:11.603Z,21.55
2023-05-16T21:31:38.204Z,22.58
2023-05-16T21:34:05.094Z,21.23
2023-05-16T21:36:32.312Z,27.40
2023-05-16T21:38:58.995Z,25.88
2023-05-16T21:41:26.750Z,20.30
2023-05-16T21:43:53.478Z,24.15
2023-05-16T21:46:20.133Z,25.25
2023-05-16T21:48:47.022Z,23.00
2023-05-16T21:51:13.689Z,21.33
2023-05-16T21:53:40.443Z,23.45
2023-05-16T21:56:07.368Z,22.95
2023-05-16T21:58:33.995Z,22.88
2023-05-16T22:01:00.851Z,23.85
2023-05-16T22:03:27.639Z,20.90
2023-05-16T22:05:54.311Z,26.20
2023-05-16T22:08:20.945Z,25.00
2023-05-16T22:10:47.902Z,21.42
2023-05-16T22:13:14.531Z,24.65
2023-05-16T22:15:44.440Z,29.85
2023-05-16T22:18:14.633Z,23.67
2023-05-16T22:20:41.323Z,22.70
2023-05-16T22:23:07.970Z,25.80
2023-05-16T22:25:34.635Z,24.20
2023-05-16T22:28:01.442Z,23.38
2023-05-16T22:30:28.152Z,25.92
2023-05-16T22:32:57.030Z,23.52
2023-05-16T22:35:25.319Z,24.02
2023-05-16T22:37:52.026Z,26.20
2023-05-16T22:40:18.764Z,21.98
2023-05-16T22:42:45.396Z,23.83
2023-05-16T22:45:12.005Z,22.77
2023-05-16T22:47:38.698Z,24.15
2023-05-16T22:50:05.734Z,24.23
2023-05-16T22:52:32.417Z,23.73
2023-05-16T22:55:00.647Z,24.52
2023-05-16T22:57:27.422Z,24.55
2023-05-16T22:59:54.138Z,24.77
2023-05-16T23:02:20.821Z,21.15
2023-05-16T23:04:47.430Z,21.90
2023-05-16T23:07:14.058Z,20.48
2023-05-16T23:09:40.829Z,20.50
2023-05-16T23:12:08.128Z,19.38
2023-05-16T23:14:34.810Z,26.52
2023-05-16T23:17:01.645Z,21.33
2023-05-16T23:19:28.320Z,24.95
2023-05-16T23:21:55.094Z,20.70
2023-05-16T23:24:22.682Z,24.88
2023-05-16T23:26:49.290Z,21.42
2023-05-16T23:29:16.199Z,24.75
2023-05-16T23:31:42.868Z,22.08
2023-05-16T23:34:09.573Z,23.20
2023-05-16T23:36:36.714Z,26.17
2023-05-16T23:39:03.505Z,22.75
2023-05-16T23:41:30.092Z,23.38
2023-05-16T23:43:56.710Z,27.00
2023-05-16T23:46:23.270Z,23.70
2023-05-16T23:48:50.052Z,25.08
2023-05-16T23:51:17.066Z,21.63
2023-05-16T23:53:43.661Z,19.65
2023-05-16T23:56:10.300Z,26.35
2023-05-16T23:58:36.870Z,23.45
